sensor_id;sensor_type;location;lat;lon;timestamp;pressure;altitude;pressure_sealevel;temperature;humidity
66560;BME280;53413;49.878;8.142;2022-10-20T00:00:16;100382.09;;;9.41;100.00
66560;BME280;53413;49.878;8.142;2022-10-20T00:02:41;100381.34;;;9.37;100.00
66560;BME280;53413;49.878;8.142;2022-10-20T00:05:07;100383.00;;;9.38;100.00
66560;BME280;53413;49.878;8.142;2022-10-20T00:07:32;100377.75;;;9.40;100.00
66560;BME280;53413;49.878;8.142;2022-10-20T00:09:58;100375.16;;;9.38;100.00
66560;BME280;53413;49.878;8.142;2022-10-20T00:12:23;100370.97;;;9.33;100.00
66560;BME280;53413;49.878;8.142;2022-10-20T00:14:48;100371.16;;;9.27;100.00
66560;BME280;53413;49.878;8.142;2022-10-20T00:17:14;100361.72;;;9.21;100.00
66560;BME280;53413;49.878;8.142;2022-10-20T00:19:39;100353.19;;;9.14;100.00
66560;BME280;53413;49.878;8.142;2022-10-20T00:22:04;100344.59;;;9.09;100.00
66560;BME280;53413;49.878;8.142;2022-10-20T00:24:30;100344.59;;;9.09;100.00
66560;BME280;53413;49.878;8.142;2022-10-20T00:26:55;100347.19;;;9.09;100.00
66560;BME280;53413;49.878;8.142;2022-10-20T00:29:20;100345.47;;;9.09;100.00
66560;BME280;53413;49.878;8.142;2022-10-20T00:31:46;100347.31;;;9.04;100.00
66560;BME280;53413;49.878;8.142;2022-10-20T00:34:11;100356.13;;;9.02;100.00
66560;BME280;53413;49.878;8.142;2022-10-20T00:36:37;100354.53;;;8.96;100.00
66560;BME280;53413;49.878;8.142;2022-10-20T00:39:04;100350.06;;;9.00;100.00
66560;BME280;53413;49.878;8.142;2022-10-20T00:41:31;100346.56;;;9.01;100.00
66560;BME280;53413;49.878;8.142;2022-10-20T00:44:02;100335.31;;;8.97;100.00
66560;BME280;53413;49.878;8.142;2022-10-20T00:48:59;100332.00;;;8.90;100.00
66560;BME280;53413;49.878;8.142;2022-10-20T00:51:28;100346.94;;;8.85;100.00
66560;BME280;53413;49.878;8.142;2022-10-20T00:53:59;100348.84;;;8.80;100.00
66560;BME280;53413;49.878;8.142;2022-10-20T00:56:27;100334.91;;;8.80;100.00
66560;BME280;53413;49.878;8.142;2022-10-20T00:58:53;100315.69;;;8.82;100.00
66560;BME280;53413;49.878;8.142;2022-10-20T01:01:19;100305.25;;;8.81;100.00
66560;BME280;53413;49.878;8.142;2022-10-20T01:03:48;100302.75;;;8.77;100.00
66560;BME280;53413;49.878;8.142;2022-10-20T01:06:16;100308.81;;;8.78;100.00
66560;BME280;53413;49.878;8.142;2022-10-20T01:08:41;100303.66;;;8.75;100.00
66560;BME280;53413;49.878;8.142;2022-10-20T01:25:13;100294.41;;;8.61;100.00
66560;BME280;53413;49.878;8.142;2022-10-20T01:27:36;100299.69;;;8.60;100.00
66560;BME280;53413;49.878;8.142;2022-10-20T01:30:06;100293.75;;;8.53;100.00
66560;BME280;53413;49.878;8.142;2022-10-20T01:40:41;100301.66;;;8.50;100.00
66560;BME280;53413;49.878;8.142;2022-10-20T01:43:11;100300.75;;;8.53;100.00
66560;BME280;53413;49.878;8.142;2022-10-20T01:45:42;100292.09;;;8.51;100.00
66560;BME280;53413;49.878;8.142;2022-10-20T01:48:11;100288.75;;;8.44;100.00
66560;BME280;53413;49.878;8.142;2022-10-20T01:50:38;100280.97;;;8.41;100.00
66560;BME280;53413;49.878;8.142;2022-10-20T01:53:05;100283.66;;;8.38;100.00
66560;BME280;53413;49.878;8.142;2022-10-20T01:55:31;100281.16;;;8.35;100.00
66560;BME280;53413;49.878;8.142;2022-10-20T01:58:14;100277.72;;;8.32;100.00
66560;BME280;53413;49.878;8.142;2022-10-20T02:00:44;100263.75;;;8.34;100.00
66560;BME280;53413;49.878;8.142;2022-10-20T02:08:42;100241.88;;;8.39;100.00
66560;BME280;53413;49.878;8.142;2022-10-20T02:11:23;100228.81;;;8.39;100.00
66560;BME280;53413;49.878;8.142;2022-10-20T02:13:51;100221.78;;;8.41;100.00
66560;BME280;53413;49.878;8.142;2022-10-20T02:16:29;100223.53;;;8.41;100.00
66560;BME280;53413;49.878;8.142;2022-10-20T02:18:57;100220.03;;;8.42;100.00
66560;BME280;53413;49.878;8.142;2022-10-20T02:21:24;100226.16;;;8.41;100.00
66560;BME280;53413;49.878;8.142;2022-10-20T02:23:49;100224.41;;;8.41;100.00
66560;BME280;53413;49.878;8.142;2022-10-20T02:26:18;100222.63;;;8.42;100.00
66560;BME280;53413;49.878;8.142;2022-10-20T02:28:47;100228.69;;;8.44;100.00
66560;BME280;53413;49.878;8.142;2022-10-20T02:31:15;100226.91;;;8.44;100.00
66560;BME280;53413;49.878;8.142;2022-10-20T02:33:42;100215.63;;;8.44;100.00
66560;BME280;53413;49.878;8.142;2022-10-20T02:36:13;100223.41;;;8.45;100.00
66560;BME280;53413;49.878;8.142;2022-10-20T02:38:39;100229.50;;;8.46;100.00
66560;BME280;53413;49.878;8.142;2022-10-20T02:41:05;100229.53;;;8.44;100.00
66560;BME280;53413;49.878;8.142;2022-10-20T02:43:30;100240.06;;;8.41;100.00
66560;BME280;53413;49.878;8.142;2022-10-20T02:45:56;100232.25;;;8.41;100.00
66560;BME280;53413;49.878;8.142;2022-10-20T02:48:21;100219.19;;;8.41;100.00
66560;BME280;53413;49.878;8.142;2022-10-20T02:50:46;100199.19;;;8.40;100.00
66560;BME280;53413;49.878;8.142;2022-10-20T02:53:12;100212.25;;;8.39;100.00
66560;BME280;53413;49.878;8.142;2022-10-20T02:55:37;100224.50;;;8.37;100.00
66560;BME280;53413;49.878;8.142;2022-10-20T02:58:02;100233.31;;;8.32;100.00
66560;BME280;53413;49.878;8.142;2022-10-20T03:00:28;100239.50;;;8.28;100.00
66560;BME280;53413;49.878;8.142;2022-10-20T03:02:55;100241.34;;;8.25;100.00
66560;BME280;53413;49.878;8.142;2022-10-20T03:05:20;100233.56;;;8.23;100.00
66560;BME280;53413;49.878;8.142;2022-10-20T03:07:46;100222.19;;;8.24;100.00
66560;BME280;53413;49.878;8.142;2022-10-20T03:10:11;100217.81;;;8.26;100.00
66560;BME280;53413;49.878;8.142;2022-10-20T03:12:36;100217.81;;;8.26;100.00
66560;BME280;53413;49.878;8.142;2022-10-20T03:15:02;100226.53;;;8.25;100.00
66560;BME280;53413;49.878;8.142;2022-10-20T03:17:27;100239.63;;;8.24;100.00
66560;BME280;53413;49.878;8.142;2022-10-20T03:19:53;100231.72;;;8.27;100.00
66560;BME280;53413;49.878;8.142;2022-10-20T03:22:18;100212.56;;;8.26;100.00
66560;BME280;53413;49.878;8.142;2022-10-20T03:24:43;100207.34;;;8.26;100.00
66560;BME280;53413;49.878;8.142;2022-10-20T03:27:09;100213.41;;;8.28;100.00
66560;BME280;53413;49.878;8.142;2022-10-20T03:29:34;100214.28;;;8.27;100.00
66560;BME280;53413;49.878;8.142;2022-10-20T03:32:00;100202.13;;;8.26;100.00
66560;BME280;53413;49.878;8.142;2022-10-20T03:34:25;100193.47;;;8.24;100.00
66560;BME280;53413;49.878;8.142;2022-10-20T03:36:51;100190.91;;;8.23;100.00
66560;BME280;53413;49.878;8.142;2022-10-20T03:39:17;100187.53;;;8.19;100.00
66560;BME280;53413;49.878;8.142;2022-10-20T03:41:42;100193.66;;;8.18;100.00
66560;BME280;53413;49.878;8.142;2022-10-20T03:44:09;100185.00;;;8.16;100.00
66560;BME280;53413;49.878;8.142;2022-10-20T03:46:34;100185.94;;;8.13;100.00
66560;BME280;53413;49.878;8.142;2022-10-20T03:49:00;100183.34;;;8.12;100.00
66560;BME280;53413;49.878;8.142;2022-10-20T03:51:25;100178.13;;;8.12;100.00
66560;BME280;53413;49.878;8.142;2022-10-20T03:53:50;100178.13;;;8.12;100.00
66560;BME280;53413;49.878;8.142;2022-10-20T03:56:17;100182.50;;;8.11;100.00
66560;BME280;53413;49.878;8.142;2022-10-20T03:58:44;100178.13;;;8.12;100.00
66560;BME280;53413;49.878;8.142;2022-10-20T04:01:14;100180.66;;;8.15;100.00
66560;BME280;53413;49.878;8.142;2022-10-20T04:03:40;100180.66;;;8.15;100.00
66560;BME280;53413;49.878;8.142;2022-10-20T04:06:05;100190.28;;;8.13;100.00
66560;BME280;53413;49.878;8.142;2022-10-20T04:08:30;100182.56;;;8.10;100.00
66560;BME280;53413;49.878;8.142;2022-10-20T04:10:57;100183.44;;;8.09;100.00
66560;BME280;53413;49.878;8.142;2022-10-20T04:13:22;100186.13;;;8.06;100.00
66560;BME280;53413;49.878;8.142;2022-10-20T04:15:48;100179.19;;;8.05;100.00
66560;BME280;53413;49.878;8.142;2022-10-20T04:18:13;100177.47;;;8.04;100.00
66560;BME280;53413;49.878;8.142;2022-10-20T04:20:39;100171.41;;;8.03;100.00
66560;BME280;53413;49.878;8.142;2022-10-20T04:23:04;100176.69;;;8.00;100.00
66560;BME280;53413;49.878;8.142;2022-10-20T04:25:29;100173.19;;;8.01;100.00
66560;BME280;53413;49.878;8.142;2022-10-20T04:27:55;100173.25;;;7.99;100.00
66560;BME280;53413;49.878;8.142;2022-10-20T04:30:20;100167.09;;;8.02;100.00
66560;BME280;53413;49.878;8.142;2022-10-20T04:32:45;100155.63;;;8.08;100.00
66560;BME280;53413;49.878;8.142;2022-10-20T04:35:11;100148.56;;;8.11;100.00
66560;BME280;53413;49.878;8.142;2022-10-20T04:37:36;100137.88;;;8.21;100.00
66560;BME280;53413;49.878;8.142;2022-10-20T04:40:02;100122.97;;;8.26;100.00
66560;BME280;53413;49.878;8.142;2022-10-20T04:42:27;100118.53;;;8.29;100.00
66560;BME280;53413;49.878;8.142;2022-10-20T04:44:53;100118.44;;;8.32;100.00
66560;BME280;53413;49.878;8.142;2022-10-20T04:47:18;100119.22;;;8.36;100.00
66560;BME280;53413;49.878;8.142;2022-10-20T04:49:43;100122.63;;;8.38;100.00
66560;BME280;53413;49.878;8.142;2022-10-20T04:52:09;100123.47;;;8.39;100.00
66560;BME280;53413;49.878;8.142;2022-10-20T04:54:34;100124.25;;;8.42;100.00
66560;BME280;53413;49.878;8.142;2022-10-20T04:57:00;100120.78;;;8.42;100.00
66560;BME280;53413;49.878;8.142;2022-10-20T04:59:25;100119.03;;;8.42;100.00
66560;BME280;53413;49.878;8.142;2022-10-20T05:01:51;100115.56;;;8.42;100.00
66560;BME280;53413;49.878;8.142;2022-10-20T05:04:16;100113.00;;;8.40;100.00
66560;BME280;53413;49.878;8.142;2022-10-20T05:06:46;100106.91;;;8.40;100.00
66560;BME280;53413;49.878;8.142;2022-10-20T05:09:12;100106.09;;;8.38;100.00
66560;BME280;53413;49.878;8.142;2022-10-20T05:11:38;100093.09;;;8.36;100.00
66560;BME280;53413;49.878;8.142;2022-10-20T05:14:03;100087.03;;;8.36;100.00
66560;BME280;53413;49.878;8.142;2022-10-20T05:16:28;100087.94;;;8.35;100.00
66560;BME280;53413;49.878;8.142;2022-10-20T05:18:54;100076.59;;;8.36;100.00
66560;BME280;53413;49.878;8.142;2022-10-20T05:21:23;100073.97;;;8.36;100.00
66560;BME280;53413;49.878;8.142;2022-10-20T05:23:57;100075.78;;;8.34;100.00
66560;BME280;53413;49.878;8.142;2022-10-20T05:26:23;100081.84;;;8.34;100.00
66560;BME280;53413;49.878;8.142;2022-10-20T05:28:50;100077.38;;;8.38;100.00
66560;BME280;53413;49.878;8.142;2022-10-20T05:31:17;100087.75;;;8.41;100.00
66560;BME280;53413;49.878;8.142;2022-10-20T05:33:45;100083.34;;;8.43;100.00
66560;BME280;53413;49.878;8.142;2022-10-20T05:36:14;100068.50;;;8.43;100.00
66560;BME280;53413;49.878;8.142;2022-10-20T05:38:40;100079.84;;;8.44;100.00
66560;BME280;53413;49.878;8.142;2022-10-20T05:41:11;100083.28;;;8.44;100.00
66560;BME280;53413;49.878;8.142;2022-10-20T05:43:37;100080.72;;;8.43;100.00
66560;BME280;53413;49.878;8.142;2022-10-20T05:46:03;100069.41;;;8.42;100.00
66560;BME280;53413;49.878;8.142;2022-10-20T05:48:28;100067.75;;;8.40;100.00
66560;BME280;53413;49.878;8.142;2022-10-20T05:50:53;100061.75;;;8.36;100.00
66560;BME280;53413;49.878;8.142;2022-10-20T05:53:19;100074.91;;;8.33;100.00
66560;BME280;53413;49.878;8.142;2022-10-20T05:55:44;100081.13;;;8.29;100.00
66560;BME280;53413;49.878;8.142;2022-10-20T05:58:09;100075.09;;;8.27;100.00
66560;BME280;53413;49.878;8.142;2022-10-20T06:00:35;100086.38;;;8.27;100.00
66560;BME280;53413;49.878;8.142;2022-10-20T06:03:07;100073.31;;;8.27;100.00
66560;BME280;53413;49.878;8.142;2022-10-20T06:05:33;100064.50;;;8.31;100.00
66560;BME280;53413;49.878;8.142;2022-10-20T06:07:58;100065.34;;;8.34;100.00
66560;BME280;53413;49.878;8.142;2022-10-20T06:10:24;100067.84;;;8.37;100.00
66560;BME280;53413;49.878;8.142;2022-10-20T06:12:49;100080.72;;;8.43;100.00
66560;BME280;53413;49.878;8.142;2022-10-20T06:15:14;100077.13;;;8.49;100.00
66560;BME280;53413;49.878;8.142;2022-10-20T06:17:40;100094.22;;;8.59;100.00
66560;BME280;53413;49.878;8.142;2022-10-20T06:20:05;100101.78;;;8.70;100.00
66560;BME280;53413;49.878;8.142;2022-10-20T06:22:31;100097.91;;;8.83;100.00
66560;BME280;53413;49.878;8.142;2022-10-20T06:24:56;100102.78;;;8.94;100.00
66560;BME280;53413;49.878;8.142;2022-10-20T06:27:21;100116.25;;;9.10;100.00
66560;BME280;53413;49.878;8.142;2022-10-20T06:29:47;100116.44;;;9.32;100.00
66560;BME280;53413;49.878;8.142;2022-10-20T06:32:12;100111.59;;;9.48;100.00
66560;BME280;53413;49.878;8.142;2022-10-20T06:34:37;100096.25;;;9.64;100.00
66560;BME280;53413;49.878;8.142;2022-10-20T06:37:03;100104.41;;;9.82;100.00
66560;BME280;53413;49.878;8.142;2022-10-20T06:39:28;100091.63;;;9.98;100.00
66560;BME280;53413;49.878;8.142;2022-10-20T06:41:54;100081.53;;;10.12;100.00
66560;BME280;53413;49.878;8.142;2022-10-20T06:44:21;100091.59;;;10.25;100.00
66560;BME280;53413;49.878;8.142;2022-10-20T06:46:47;100114.66;;;10.40;100.00
66560;BME280;53413;49.878;8.142;2022-10-20T06:49:13;100113.16;;;10.57;100.00
66560;BME280;53413;49.878;8.142;2022-10-20T06:51:39;100111.81;;;10.70;100.00
66560;BME280;53413;49.878;8.142;2022-10-20T06:54:05;100103.69;;;10.76;100.00
66560;BME280;53413;49.878;8.142;2022-10-20T06:56:32;100120.13;;;10.82;100.00
66560;BME280;53413;49.878;8.142;2022-10-20T06:58:59;100126.63;;;10.95;100.00
66560;BME280;53413;49.878;8.142;2022-10-20T07:01:27;100119.19;;;11.06;100.00
66560;BME280;53413;49.878;8.142;2022-10-20T07:03:56;100121.22;;;11.22;100.00
66560;BME280;53413;49.878;8.142;2022-10-20T07:06:33;100104.84;;;11.37;100.00
66560;BME280;53413;49.878;8.142;2022-10-20T07:09:00;100084.13;;;11.31;100.00
66560;BME280;53413;49.878;8.142;2022-10-20T07:11:29;100083.22;;;11.32;100.00
66560;BME280;53413;49.878;8.142;2022-10-20T07:13:56;100080.91;;;11.47;100.00
66560;BME280;53413;49.878;8.142;2022-10-20T07:16:24;100073.75;;;11.50;100.00
66560;BME280;53413;49.878;8.142;2022-10-20T07:18:50;100070.03;;;11.77;100.00
66560;BME280;53413;49.878;8.142;2022-10-20T07:21:18;100057.81;;;12.57;100.00
66560;BME280;53413;49.878;8.142;2022-10-20T07:23:46;100049.84;;;13.33;100.00
66560;BME280;53413;49.878;8.142;2022-10-20T07:26:20;100051.81;;;13.82;100.00
66560;BME280;53413;49.878;8.142;2022-10-20T07:28:48;100035.69;;;14.56;100.00
66560;BME280;53413;49.878;8.142;2022-10-20T07:31:19;100045.56;;;15.77;100.00
66560;BME280;53413;49.878;8.142;2022-10-20T07:33:45;100059.19;;;17.01;100.00
66560;BME280;53413;49.878;8.142;2022-10-20T07:36:23;100053.84;;;17.43;100.00
66560;BME280;53413;49.878;8.142;2022-10-20T07:38:53;100059.16;;;17.56;100.00
66560;BME280;53413;49.878;8.142;2022-10-20T07:41:20;100073.53;;;17.92;95.28
66560;BME280;53413;49.878;8.142;2022-10-20T07:43:46;100070.81;;;18.45;94.08
66560;BME280;53413;49.878;8.142;2022-10-20T07:46:12;100088.22;;;18.11;89.06
66560;BME280;53413;49.878;8.142;2022-10-20T07:48:38;100059.84;;;17.73;91.30
66560;BME280;53413;49.878;8.142;2022-10-20T07:53:50;100061.69;;;17.17;91.72
66560;BME280;53413;49.878;8.142;2022-10-20T07:56:16;100069.59;;;17.32;92.41
66560;BME280;53413;49.878;8.142;2022-10-20T07:58:42;100067.56;;;16.95;93.37
66560;BME280;53413;49.878;8.142;2022-10-20T08:01:08;100073.63;;;16.10;96.71
66560;BME280;53413;49.878;8.142;2022-10-20T08:03:34;100084.22;;;15.33;100.00
66560;BME280;53413;49.878;8.142;2022-10-20T08:05:59;100079.47;;;14.76;100.00
66560;BME280;53413;49.878;8.142;2022-10-20T08:08:25;100067.16;;;14.59;100.00
66560;BME280;53413;49.878;8.142;2022-10-20T08:10:50;100052.66;;;14.34;100.00
66560;BME280;53413;49.878;8.142;2022-10-20T08:13:15;100058.47;;;13.90;100.00
66560;BME280;53413;49.878;8.142;2022-10-20T08:15:41;100069.19;;;13.51;100.00
66560;BME280;53413;49.878;8.142;2022-10-20T08:18:06;100066.94;;;13.24;100.00
66560;BME280;53413;49.878;8.142;2022-10-20T08:20:32;100067.41;;;13.33;100.00
66560;BME280;53413;49.878;8.142;2022-10-20T08:22:58;100063.75;;;13.35;100.00
66560;BME280;53413;49.878;8.142;2022-10-20T08:25:23;100058.31;;;13.40;100.00
66560;BME280;53413;49.878;8.142;2022-10-20T08:27:49;100055.38;;;13.81;100.00
66560;BME280;53413;49.878;8.142;2022-10-20T08:30:14;100059.22;;;15.08;100.00
66560;BME280;53413;49.878;8.142;2022-10-20T08:32:40;100069.16;;;16.98;100.00
66560;BME280;53413;49.878;8.142;2022-10-20T08:35:05;100045.03;;;18.35;100.00
66560;BME280;53413;49.878;8.142;2022-10-20T08:37:31;100025.00;;;20.23;88.82
66560;BME280;53413;49.878;8.142;2022-10-20T08:39:57;100023.69;;;21.40;78.73
66560;BME280;53413;49.878;8.142;2022-10-20T08:42:23;100043.00;;;20.65;77.09
66560;BME280;53413;49.878;8.142;2022-10-20T08:44:49;100039.25;;;19.64;78.60
66560;BME280;53413;49.878;8.142;2022-10-20T08:47:23;100038.50;;;19.02;80.83
66560;BME280;53413;49.878;8.142;2022-10-20T08:49:50;100048.72;;;18.95;82.89
66560;BME280;53413;49.878;8.142;2022-10-20T08:52:16;100047.13;;;19.05;82.46
66560;BME280;53413;49.878;8.142;2022-10-20T08:54:43;100046.13;;;19.91;79.52
66560;BME280;53413;49.878;8.142;2022-10-20T08:57:21;100057.06;;;20.79;75.73
66560;BME280;53413;49.878;8.142;2022-10-20T08:59:50;100046.09;;;21.37;74.05
66560;BME280;53413;49.878;8.142;2022-10-20T09:02:16;100029.22;;;21.90;69.20
66560;BME280;53413;49.878;8.142;2022-10-20T09:04:54;100022.47;;;21.86;68.60
66560;BME280;53413;49.878;8.142;2022-10-20T09:07:27;100025.06;;;21.76;69.27
66560;BME280;53413;49.878;8.142;2022-10-20T09:10:02;100035.66;;;21.45;70.02
66560;BME280;53413;49.878;8.142;2022-10-20T09:12:30;100044.22;;;21.16;70.50
66560;BME280;53413;49.878;8.142;2022-10-20T09:14:56;100043.09;;;20.98;71.87
66560;BME280;53413;49.878;8.142;2022-10-20T09:17:21;100048.38;;;21.09;71.50
66560;BME280;53413;49.878;8.142;2022-10-20T09:19:50;100039.91;;;21.04;71.36
66560;BME280;53413;49.878;8.142;2022-10-20T09:22:19;100045.66;;;20.76;72.09
66560;BME280;53413;49.878;8.142;2022-10-20T09:24:45;100048.94;;;20.35;73.72
66560;BME280;53413;49.878;8.142;2022-10-20T09:29:48;100043.56;;;19.53;76.56
66560;BME280;53413;49.878;8.142;2022-10-20T09:35:18;100044.41;;;18.31;80.95
66560;BME280;53413;49.878;8.142;2022-10-20T09:37:51;100048.28;;;17.87;84.63
66560;BME280;53413;49.878;8.142;2022-10-20T09:40:18;100044.97;;;17.57;87.34
66560;BME280;53413;49.878;8.142;2022-10-20T09:42:50;100036.84;;;17.20;89.51
66560;BME280;53413;49.878;8.142;2022-10-20T09:45:31;100031.78;;;16.88;93.40
66560;BME280;53413;49.878;8.142;2022-10-20T09:48:07;100042.34;;;16.60;97.25
66560;BME280;53413;49.878;8.142;2022-10-20T09:50:45;100038.75;;;16.47;99.23
66560;BME280;53413;49.878;8.142;2022-10-20T09:53:19;100038.41;;;16.24;100.00
66560;BME280;53413;49.878;8.142;2022-10-20T09:55:47;100045.75;;;16.19;100.00
66560;BME280;53413;49.878;8.142;2022-10-20T09:58:20;100049.09;;;16.23;100.00
66560;BME280;53413;49.878;8.142;2022-10-20T10:00:56;100044.75;;;16.22;100.00
66560;BME280;53413;49.878;8.142;2022-10-20T10:03:22;100045.56;;;16.22;100.00
66560;BME280;53413;49.878;8.142;2022-10-20T10:05:50;100032.75;;;16.16;100.00
66560;BME280;53413;49.878;8.142;2022-10-20T10:08:17;100045.66;;;16.06;100.00
66560;BME280;53413;49.878;8.142;2022-10-20T10:10:45;100039.25;;;15.96;100.00
66560;BME280;53413;49.878;8.142;2022-10-20T10:13:23;100034.06;;;15.78;100.00
66560;BME280;53413;49.878;8.142;2022-10-20T10:16:05;100040.66;;;15.71;100.00
66560;BME280;53413;49.878;8.142;2022-10-20T10:18:31;100034.53;;;15.70;100.00
66560;BME280;53413;49.878;8.142;2022-10-20T10:21:09;100027.53;;;15.85;100.00
66560;BME280;53413;49.878;8.142;2022-10-20T10:23:36;100018.09;;;15.96;100.00
66560;BME280;53413;49.878;8.142;2022-10-20T10:26:45;100012.13;;;16.21;100.00
66560;BME280;53413;49.878;8.142;2022-10-20T10:29:23;100006.28;;;16.45;100.00
66560;BME280;53413;49.878;8.142;2022-10-20T10:32:00;100000.81;;;16.75;100.00
66560;BME280;53413;49.878;8.142;2022-10-20T10:37:13;99977.78;;;17.84;100.00
66560;BME280;53413;49.878;8.142;2022-10-20T10:39:40;99976.00;;;17.97;100.00
66560;BME280;53413;49.878;8.142;2022-10-20T10:42:30;99976.63;;;17.75;100.00
66560;BME280;53413;49.878;8.142;2022-10-20T10:50:57;99947.69;;;17.72;100.00
66560;BME280;53413;49.878;8.142;2022-10-20T10:53:33;99943.66;;;17.79;100.00
66560;BME280;53413;49.878;8.142;2022-10-20T10:59:10;99958.16;;;18.12;100.00
66560;BME280;53413;49.878;8.142;2022-10-20T11:04:40;99972.53;;;17.97;100.00
66560;BME280;53413;49.878;8.142;2022-10-20T11:21:26;99981.13;;;17.21;100.00
66560;BME280;53413;49.878;8.142;2022-10-20T11:26:38;99988.47;;;16.76;100.00
66560;BME280;53413;49.878;8.142;2022-10-20T11:29:23;99991.97;;;16.62;100.00
66560;BME280;53413;49.878;8.142;2022-10-20T11:37:02;99981.75;;;16.28;100.00
66560;BME280;53413;49.878;8.142;2022-10-20T11:39:40;99998.28;;;16.18;100.00
66560;BME280;53413;49.878;8.142;2022-10-20T11:44:44;99995.16;;;16.11;100.00
66560;BME280;53413;49.878;8.142;2022-10-20T11:47:18;99994.78;;;16.17;100.00
66560;BME280;53413;49.878;8.142;2022-10-20T11:49:46;100012.72;;;16.12;100.00
66560;BME280;53413;49.878;8.142;2022-10-20T12:00:59;99980.63;;;16.04;100.00
66560;BME280;53413;49.878;8.142;2022-10-20T12:06:36;99972.31;;;16.10;100.00
66560;BME280;53413;49.878;8.142;2022-10-20T12:12:18;99972.59;;;15.91;100.00
66560;BME280;53413;49.878;8.142;2022-10-20T12:15:18;99961.34;;;15.87;100.00
66560;BME280;53413;49.878;8.142;2022-10-20T12:17:45;99970.59;;;15.80;100.00
66560;BME280;53413;49.878;8.142;2022-10-20T12:22:50;99973.09;;;15.67;100.00
66560;BME280;53413;49.878;8.142;2022-10-20T12:30:59;99971.34;;;15.96;100.00
66560;BME280;53413;49.878;8.142;2022-10-20T12:39:06;99976.84;;;16.08;100.00
66560;BME280;53413;49.878;8.142;2022-10-20T12:41:34;99966.84;;;16.13;100.00
66560;BME280;53413;49.878;8.142;2022-10-20T12:44:05;99955.22;;;16.15;100.00
66560;BME280;53413;49.878;8.142;2022-10-20T12:46:33;99950.56;;;16.19;100.00
66560;BME280;53413;49.878;8.142;2022-10-20T12:49:03;99937.16;;;16.22;100.00
66560;BME280;53413;49.878;8.142;2022-10-20T12:51:36;99935.75;;;16.16;100.00
66560;BME280;53413;49.878;8.142;2022-10-20T12:57:37;99927.63;;;15.76;100.00
66560;BME280;53413;49.878;8.142;2022-10-20T13:02:58;99922.25;;;15.49;100.00
66560;BME280;53413;49.878;8.142;2022-10-20T13:05:44;99932.53;;;15.39;100.00
66560;BME280;53413;49.878;8.142;2022-10-20T13:10:45;99910.31;;;15.27;100.00
66560;BME280;53413;49.878;8.142;2022-10-20T13:18:11;99917.38;;;15.12;100.00
66560;BME280;53413;49.878;8.142;2022-10-20T13:20:59;99910.84;;;15.03;100.00
66560;BME280;53413;49.878;8.142;2022-10-20T13:23:36;99917.22;;;14.99;100.00
66560;BME280;53413;49.878;8.142;2022-10-20T13:26:15;99920.72;;;15.00;100.00
66560;BME280;53413;49.878;8.142;2022-10-20T13:28:46;99923.38;;;15.00;100.00
66560;BME280;53413;49.878;8.142;2022-10-20T13:50:57;99934.63;;;14.07;100.00
66560;BME280;53413;49.878;8.142;2022-10-20T13:53:33;99942.19;;;14.13;100.00
66560;BME280;53413;49.878;8.142;2022-10-20T13:56:04;99938.03;;;14.09;100.00
66560;BME280;53413;49.878;8.142;2022-10-20T13:58:31;99924.06;;;14.07;100.00
66560;BME280;53413;49.878;8.142;2022-10-20T14:01:02;99915.13;;;13.94;100.00
66560;BME280;53413;49.878;8.142;2022-10-20T14:03:29;99929.06;;;13.80;100.00
66560;BME280;53413;49.878;8.142;2022-10-20T14:05:55;99939.97;;;13.72;100.00
66560;BME280;53413;49.878;8.142;2022-10-20T14:08:23;99940.06;;;13.70;100.00
66560;BME280;53413;49.878;8.142;2022-10-20T14:10:56;99946.28;;;13.69;100.00
66560;BME280;53413;49.878;8.142;2022-10-20T14:13:26;99953.69;;;13.61;100.00
66560;BME280;53413;49.878;8.142;2022-10-20T14:15:54;99963.53;;;13.58;100.00
66560;BME280;53413;49.878;8.142;2022-10-20T14:18:31;99975.63;;;13.62;100.00
66560;BME280;53413;49.878;8.142;2022-10-20T14:21:17;99985.06;;;13.66;100.00
66560;BME280;53413;49.878;8.142;2022-10-20T14:23:44;99995.53;;;13.67;100.00
66560;BME280;53413;49.878;8.142;2022-10-20T14:26:17;99980.56;;;13.68;100.00
66560;BME280;53413;49.878;8.142;2022-10-20T14:28:43;99974.47;;;13.67;100.00
66560;BME280;53413;49.878;8.142;2022-10-20T14:31:10;99964.06;;;13.64;100.00
66560;BME280;53413;49.878;8.142;2022-10-20T14:33:40;99965.16;;;13.60;100.00
66560;BME280;53413;49.878;8.142;2022-10-20T14:36:18;99966.41;;;13.53;100.00
66560;BME280;53413;49.878;8.142;2022-10-20T14:38:50;99962.84;;;13.54;100.00
66560;BME280;53413;49.878;8.142;2022-10-20T14:41:25;99958.97;;;13.61;100.00
66560;BME280;53413;49.878;8.142;2022-10-20T14:43:57;99945.56;;;13.66;100.00
66560;BME280;53413;49.878;8.142;2022-10-20T14:46:37;99923.75;;;13.64;100.00
66560;BME280;53413;49.878;8.142;2022-10-20T14:49:12;99913.66;;;13.54;100.00
66560;BME280;53413;49.878;8.142;2022-10-20T14:51:52;99922.97;;;13.44;100.00
66560;BME280;53413;49.878;8.142;2022-10-20T14:56:45;99932.72;;;13.42;100.00
66560;BME280;53413;49.878;8.142;2022-10-20T14:59:15;99934.63;;;13.40;100.00
66560;BME280;53413;49.878;8.142;2022-10-20T15:01:57;99936.44;;;13.38;100.00
66560;BME280;53413;49.878;8.142;2022-10-20T15:04:27;99924.09;;;13.40;100.00
66560;BME280;53413;49.878;8.142;2022-10-20T15:09:49;99918.03;;;13.38;100.00
66560;BME280;53413;49.878;8.142;2022-10-20T15:12:21;99914.69;;;13.34;100.00
66560;BME280;53413;49.878;8.142;2022-10-20T15:14:49;99918.16;;;13.35;100.00
66560;BME280;53413;49.878;8.142;2022-10-20T15:25:27;99925.63;;;13.44;100.00
66560;BME280;53413;49.878;8.142;2022-10-20T15:27:55;99923.59;;;13.49;100.00